sensor_id;sensor_type;location;lat;lon;timestamp;P1;durP1;ratioP1;P2;durP2;ratioP2
3453;SDS011;1741;51.294;8.608;2024-02-26T00:02:11;2.00;;;1.90;;
3453;SDS011;1741;51.294;8.608;2024-02-26T00:04:38;2.53;;;2.43;;
3453;SDS011;1741;51.294;8.608;2024-02-26T00:07:05;2.43;;;2.33;;
3453;SDS011;1741;51.294;8.608;2024-02-26T00:09:33;2.80;;;2.60;;
3453;SDS011;1741;51.294;8.608;2024-02-26T00:12:03;2.50;;;2.40;;
3453;SDS011;1741;51.294;8.608;2024-02-26T00:14:31;2.80;;;2.60;;
3453;SDS011;1741;51.294;8.608;2024-02-26T00:16:58;6.90;;;2.97;;
3453;SDS011;1741;51.294;8.608;2024-02-26T00:19:25;2.77;;;2.67;;
3453;SDS011;1741;51.294;8.608;2024-02-26T00:21:52;5.70;;;2.43;;
3453;SDS011;1741;51.294;8.608;2024-02-26T00:24:22;2.67;;;2.57;;
3453;SDS011;1741;51.294;8.608;2024-02-26T00:26:49;2.50;;;2.40;;
3453;SDS011;1741;51.294;8.608;2024-02-26T00:29:20;2.43;;;2.33;;
3453;SDS011;1741;51.294;8.608;2024-02-26T00:31:48;3.80;;;2.60;;
3453;SDS011;1741;51.294;8.608;2024-02-26T00:34:15;2.10;;;2.10;;
3453;SDS011;1741;51.294;8.608;2024-02-26T00:36:42;2.40;;;2.40;;
3453;SDS011;1741;51.294;8.608;2024-02-26T00:39:10;2.10;;;2.10;;
3453;SDS011;1741;51.294;8.608;2024-02-26T00:41:41;2.90;;;2.70;;
3453;SDS011;1741;51.294;8.608;2024-02-26T00:44:09;3.30;;;2.60;;
3453;SDS011;1741;51.294;8.608;2024-02-26T00:46:36;2.90;;;2.80;;
3453;SDS011;1741;51.294;8.608;2024-02-26T00:49:03;2.50;;;2.50;;
3453;SDS011;1741;51.294;8.608;2024-02-26T00:51:31;2.60;;;2.60;;
3453;SDS011;1741;51.294;8.608;2024-02-26T00:53:58;2.57;;;2.57;;
3453;SDS011;1741;51.294;8.608;2024-02-26T00:56:26;2.63;;;2.53;;
3453;SDS011;1741;51.294;8.608;2024-02-26T00:58:53;3.00;;;2.90;;
3453;SDS011;1741;51.294;8.608;2024-02-26T01:01:20;4.03;;;3.77;;
3453;SDS011;1741;51.294;8.608;2024-02-26T01:03:47;2.70;;;2.70;;
3453;SDS011;1741;51.294;8.608;2024-02-26T01:06:15;3.20;;;3.10;;
3453;SDS011;1741;51.294;8.608;2024-02-26T01:08:43;3.60;;;3.40;;
3453;SDS011;1741;51.294;8.608;2024-02-26T01:11:10;3.40;;;3.30;;
3453;SDS011;1741;51.294;8.608;2024-02-26T01:13:37;3.90;;;3.70;;
3453;SDS011;1741;51.294;8.608;2024-02-26T01:16:04;3.57;;;3.47;;
3453;SDS011;1741;51.294;8.608;2024-02-26T01:18:32;3.87;;;3.73;;
3453;SDS011;1741;51.294;8.608;2024-02-26T01:20:59;4.10;;;4.00;;
3453;SDS011;1741;51.294;8.608;2024-02-26T01:23:26;4.20;;;4.10;;
3453;SDS011;1741;51.294;8.608;2024-02-26T01:25:53;3.90;;;3.80;;
3453;SDS011;1741;51.294;8.608;2024-02-26T01:28:21;3.83;;;3.73;;
3453;SDS011;1741;51.294;8.608;2024-02-26T01:30:48;4.20;;;4.10;;
3453;SDS011;1741;51.294;8.608;2024-02-26T01:33:15;3.70;;;3.60;;
3453;SDS011;1741;51.294;8.608;2024-02-26T01:35:43;3.50;;;3.50;;
3453;SDS011;1741;51.294;8.608;2024-02-26T01:38:10;3.97;;;3.87;;
3453;SDS011;1741;51.294;8.608;2024-02-26T01:40:38;4.40;;;4.20;;
3453;SDS011;1741;51.294;8.608;2024-02-26T01:43:05;4.90;;;4.70;;
3453;SDS011;1741;51.294;8.608;2024-02-26T01:45:33;4.40;;;4.30;;
3453;SDS011;1741;51.294;8.608;2024-02-26T01:48:00;4.33;;;4.23;;
3453;SDS011;1741;51.294;8.608;2024-02-26T01:50:28;4.70;;;4.50;;
3453;SDS011;1741;51.294;8.608;2024-02-26T01:52:56;4.23;;;4.13;;
3453;SDS011;1741;51.294;8.608;2024-02-26T01:55:24;4.10;;;4.00;;
3453;SDS011;1741;51.294;8.608;2024-02-26T01:57:53;4.37;;;4.27;;
3453;SDS011;1741;51.294;8.608;2024-02-26T02:00:20;4.03;;;4.00;;
3453;SDS011;1741;51.294;8.608;2024-02-26T02:02:50;6.93;;;4.50;;
3453;SDS011;1741;51.294;8.608;2024-02-26T02:05:18;4.00;;;4.00;;
3453;SDS011;1741;51.294;8.608;2024-02-26T02:07:47;4.43;;;4.30;;
3453;SDS011;1741;51.294;8.608;2024-02-26T02:10:16;4.60;;;4.50;;
3453;SDS011;1741;51.294;8.608;2024-02-26T02:12:45;4.33;;;4.23;;
3453;SDS011;1741;51.294;8.608;2024-02-26T02:15:12;5.80;;;5.50;;
3453;SDS011;1741;51.294;8.608;2024-02-26T02:17:39;4.83;;;4.73;;
3453;SDS011;1741;51.294;8.608;2024-02-26T02:20:14;5.13;;;5.03;;
3453;SDS011;1741;51.294;8.608;2024-02-26T02:22:44;5.23;;;5.07;;
3453;SDS011;1741;51.294;8.608;2024-02-26T02:25:12;5.70;;;5.40;;
3453;SDS011;1741;51.294;8.608;2024-02-26T02:27:40;5.00;;;4.90;;
3453;SDS011;1741;51.294;8.608;2024-02-26T02:30:08;5.47;;;5.37;;
3453;SDS011;1741;51.294;8.608;2024-02-26T02:32:39;5.90;;;5.70;;
3453;SDS011;1741;51.294;8.608;2024-02-26T02:35:08;5.50;;;5.40;;
3453;SDS011;1741;51.294;8.608;2024-02-26T02:37:35;5.90;;;5.70;;
3453;SDS011;1741;51.294;8.608;2024-02-26T02:40:04;6.23;;;6.07;;
3453;SDS011;1741;51.294;8.608;2024-02-26T02:42:31;6.63;;;6.33;;
3453;SDS011;1741;51.294;8.608;2024-02-26T02:44:58;7.00;;;6.73;;
3453;SDS011;1741;51.294;8.608;2024-02-26T02:47:26;6.27;;;6.07;;
3453;SDS011;1741;51.294;8.608;2024-02-26T02:49:53;6.40;;;6.10;;
3453;SDS011;1741;51.294;8.608;2024-02-26T02:52:20;6.27;;;6.07;;
3453;SDS011;1741;51.294;8.608;2024-02-26T02:54:47;5.63;;;5.43;;
3453;SDS011;1741;51.294;8.608;2024-02-26T02:57:14;5.57;;;5.40;;
3453;SDS011;1741;51.294;8.608;2024-02-26T02:59:41;5.30;;;5.10;;
3453;SDS011;1741;51.294;8.608;2024-02-26T03:02:09;5.53;;;5.33;;
3453;SDS011;1741;51.294;8.608;2024-02-26T03:04:35;5.60;;;5.40;;
3453;SDS011;1741;51.294;8.608;2024-02-26T03:07:03;6.40;;;6.10;;
3453;SDS011;1741;51.294;8.608;2024-02-26T03:09:30;5.90;;;5.80;;
3453;SDS011;1741;51.294;8.608;2024-02-26T03:11:57;6.30;;;6.00;;
3453;SDS011;1741;51.294;8.608;2024-02-26T03:14:26;6.60;;;6.30;;
3453;SDS011;1741;51.294;8.608;2024-02-26T03:16:54;5.70;;;5.60;;
3453;SDS011;1741;51.294;8.608;2024-02-26T03:19:21;6.43;;;6.23;;
3453;SDS011;1741;51.294;8.608;2024-02-26T03:21:51;6.90;;;6.60;;
3453;SDS011;1741;51.294;8.608;2024-02-26T03:24:17;6.97;;;6.67;;
3453;SDS011;1741;51.294;8.608;2024-02-26T03:26:46;7.10;;;6.80;;
3453;SDS011;1741;51.294;8.608;2024-02-26T03:29:13;6.90;;;6.70;;
3453;SDS011;1741;51.294;8.608;2024-02-26T03:31:40;7.30;;;6.87;;
3453;SDS011;1741;51.294;8.608;2024-02-26T03:34:07;7.67;;;7.37;;
3453;SDS011;1741;51.294;8.608;2024-02-26T03:36:36;7.70;;;7.40;;
3453;SDS011;1741;51.294;8.608;2024-02-26T03:39:02;7.13;;;6.73;;
3453;SDS011;1741;51.294;8.608;2024-02-26T03:41:34;8.10;;;7.50;;
3453;SDS011;1741;51.294;8.608;2024-02-26T03:44:01;7.77;;;7.47;;
3453;SDS011;1741;51.294;8.608;2024-02-26T03:46:28;8.20;;;7.60;;
3453;SDS011;1741;51.294;8.608;2024-02-26T03:48:56;8.57;;;8.07;;
3453;SDS011;1741;51.294;8.608;2024-02-26T03:51:23;8.50;;;8.10;;
3453;SDS011;1741;51.294;8.608;2024-02-26T03:53:50;8.93;;;8.47;;
3453;SDS011;1741;51.294;8.608;2024-02-26T03:56:17;8.20;;;7.90;;
3453;SDS011;1741;51.294;8.608;2024-02-26T03:58:44;8.40;;;7.93;;
3453;SDS011;1741;51.294;8.608;2024-02-26T04:01:11;7.80;;;7.50;;
3453;SDS011;1741;51.294;8.608;2024-02-26T04:03:38;8.20;;;7.90;;
3453;SDS011;1741;51.294;8.608;2024-02-26T04:06:08;9.00;;;8.60;;
3453;SDS011;1741;51.294;8.608;2024-02-26T04:08:36;9.10;;;8.70;;
3453;SDS011;1741;51.294;8.608;2024-02-26T04:11:05;9.30;;;9.00;;
3453;SDS011;1741;51.294;8.608;2024-02-26T04:13:34;9.43;;;8.97;;
3453;SDS011;1741;51.294;8.608;2024-02-26T04:16:01;8.57;;;8.27;;
3453;SDS011;1741;51.294;8.608;2024-02-26T04:18:29;9.43;;;8.97;;
3453;SDS011;1741;51.294;8.608;2024-02-26T04:20:56;8.50;;;8.20;;
3453;SDS011;1741;51.294;8.608;2024-02-26T04:23:24;7.83;;;7.53;;
3453;SDS011;1741;51.294;8.608;2024-02-26T04:25:51;7.20;;;6.90;;
3453;SDS011;1741;51.294;8.608;2024-02-26T04:28:20;7.40;;;7.10;;
3453;SDS011;1741;51.294;8.608;2024-02-26T04:30:47;7.50;;;6.83;;
3453;SDS011;1741;51.294;8.608;2024-02-26T04:33:14;7.37;;;7.10;;
3453;SDS011;1741;51.294;8.608;2024-02-26T04:35:43;7.43;;;6.83;;
3453;SDS011;1741;51.294;8.608;2024-02-26T04:38:10;7.60;;;7.30;;
3453;SDS011;1741;51.294;8.608;2024-02-26T04:40:37;8.17;;;7.67;;
3453;SDS011;1741;51.294;8.608;2024-02-26T04:43:06;7.77;;;7.37;;
3453;SDS011;1741;51.294;8.608;2024-02-26T04:45:34;8.40;;;8.10;;
3453;SDS011;1741;51.294;8.608;2024-02-26T04:48:01;8.30;;;8.00;;
3453;SDS011;1741;51.294;8.608;2024-02-26T04:50:28;8.13;;;7.73;;
3453;SDS011;1741;51.294;8.608;2024-02-26T04:52:55;8.30;;;7.90;;
3453;SDS011;1741;51.294;8.608;2024-02-26T04:55:22;7.67;;;7.40;;
3453;SDS011;1741;51.294;8.608;2024-02-26T04:57:51;7.70;;;7.30;;
3453;SDS011;1741;51.294;8.608;2024-02-26T05:00:17;7.70;;;7.10;;
3453;SDS011;1741;51.294;8.608;2024-02-26T05:02:44;6.90;;;6.70;;
3453;SDS011;1741;51.294;8.608;2024-02-26T05:05:13;6.83;;;6.63;;
3453;SDS011;1741;51.294;8.608;2024-02-26T05:07:40;6.90;;;6.70;;
3453;SDS011;1741;51.294;8.608;2024-02-26T05:10:09;6.87;;;6.60;;
3453;SDS011;1741;51.294;8.608;2024-02-26T05:12:37;6.87;;;6.67;;
3453;SDS011;1741;51.294;8.608;2024-02-26T05:15:04;8.10;;;7.50;;
3453;SDS011;1741;51.294;8.608;2024-02-26T05:17:32;7.10;;;6.80;;
3453;SDS011;1741;51.294;8.608;2024-02-26T05:19:59;7.43;;;6.93;;
3453;SDS011;1741;51.294;8.608;2024-02-26T05:22:26;7.23;;;6.93;;
3453;SDS011;1741;51.294;8.608;2024-02-26T05:24:53;11.83;;;8.03;;
3453;SDS011;1741;51.294;8.608;2024-02-26T05:27:20;6.30;;;5.90;;
3453;SDS011;1741;51.294;8.608;2024-02-26T05:29:47;7.00;;;6.57;;
3453;SDS011;1741;51.294;8.608;2024-02-26T05:32:14;7.37;;;6.97;;
3453;SDS011;1741;51.294;8.608;2024-02-26T05:34:42;5.90;;;5.70;;
3453;SDS011;1741;51.294;8.608;2024-02-26T05:37:08;6.67;;;6.20;;
3453;SDS011;1741;51.294;8.608;2024-02-26T05:39:37;5.97;;;5.77;;
3453;SDS011;1741;51.294;8.608;2024-02-26T05:42:04;6.00;;;5.80;;
3453;SDS011;1741;51.294;8.608;2024-02-26T05:44:31;6.27;;;5.60;;
3453;SDS011;1741;51.294;8.608;2024-02-26T05:46:58;5.90;;;5.60;;
3453;SDS011;1741;51.294;8.608;2024-02-26T05:49:25;5.63;;;5.43;;
3453;SDS011;1741;51.294;8.608;2024-02-26T05:51:52;5.97;;;5.77;;
3453;SDS011;1741;51.294;8.608;2024-02-26T05:54:19;6.30;;;5.90;;
3453;SDS011;1741;51.294;8.608;2024-02-26T05:56:46;6.13;;;5.93;;
3453;SDS011;1741;51.294;8.608;2024-02-26T05:59:13;6.47;;;6.17;;
3453;SDS011;1741;51.294;8.608;2024-02-26T06:01:41;7.17;;;6.57;;
3453;SDS011;1741;51.294;8.608;2024-02-26T06:04:08;6.80;;;6.50;;
3453;SDS011;1741;51.294;8.608;2024-02-26T06:06:35;7.00;;;6.60;;
3453;SDS011;1741;51.294;8.608;2024-02-26T06:09:07;6.00;;;5.70;;
3453;SDS011;1741;51.294;8.608;2024-02-26T06:11:35;5.80;;;5.50;;
3453;SDS011;1741;51.294;8.608;2024-02-26T06:14:02;5.87;;;5.60;;
3453;SDS011;1741;51.294;8.608;2024-02-26T06:16:30;5.73;;;5.43;;
3453;SDS011;1741;51.294;8.608;2024-02-26T06:18:57;5.33;;;4.93;;
3453;SDS011;1741;51.294;8.608;2024-02-26T06:21:26;6.10;;;5.53;;
3453;SDS011;1741;51.294;8.608;2024-02-26T06:23:54;5.80;;;5.60;;
3453;SDS011;1741;51.294;8.608;2024-02-26T06:26:21;6.13;;;5.83;;
3453;SDS011;1741;51.294;8.608;2024-02-26T06:28:48;5.53;;;5.33;;
3453;SDS011;1741;51.294;8.608;2024-02-26T06:31:16;5.40;;;5.20;;
3453;SDS011;1741;51.294;8.608;2024-02-26T06:33:43;6.30;;;5.80;;
3453;SDS011;1741;51.294;8.608;2024-02-26T06:36:12;5.80;;;5.50;;
3453;SDS011;1741;51.294;8.608;2024-02-26T06:38:40;6.33;;;6.03;;
3453;SDS011;1741;51.294;8.608;2024-02-26T06:41:07;7.10;;;6.60;;
3453;SDS011;1741;51.294;8.608;2024-02-26T06:43:34;7.07;;;6.67;;
3453;SDS011;1741;51.294;8.608;2024-02-26T06:46:01;6.83;;;6.50;;
3453;SDS011;1741;51.294;8.608;2024-02-26T06:48:29;10.83;;;7.07;;
3453;SDS011;1741;51.294;8.608;2024-02-26T06:50:56;7.20;;;6.87;;
3453;SDS011;1741;51.294;8.608;2024-02-26T06:53:23;6.33;;;6.13;;
3453;SDS011;1741;51.294;8.608;2024-02-26T06:55:50;7.80;;;7.07;;
3453;SDS011;1741;51.294;8.608;2024-02-26T06:58:17;7.10;;;6.80;;
3453;SDS011;1741;51.294;8.608;2024-02-26T07:00:46;8.00;;;7.60;;
3453;SDS011;1741;51.294;8.608;2024-02-26T07:03:14;7.90;;;7.50;;
3453;SDS011;1741;51.294;8.608;2024-02-26T07:05:42;7.93;;;7.53;;
3453;SDS011;1741;51.294;8.608;2024-02-26T07:08:11;8.20;;;7.67;;
3453;SDS011;1741;51.294;8.608;2024-02-26T07:10:38;8.80;;;8.30;;
3453;SDS011;1741;51.294;8.608;2024-02-26T07:13:05;8.43;;;7.93;;
3453;SDS011;1741;51.294;8.608;2024-02-26T07:15:32;8.77;;;8.27;;
3453;SDS011;1741;51.294;8.608;2024-02-26T07:18:00;8.63;;;8.10;;
3453;SDS011;1741;51.294;8.608;2024-02-26T07:20:30;8.43;;;7.63;;
3453;SDS011;1741;51.294;8.608;2024-02-26T07:22:57;12.93;;;9.57;;
3453;SDS011;1741;51.294;8.608;2024-02-26T07:25:24;9.90;;;9.40;;
3453;SDS011;1741;51.294;8.608;2024-02-26T07:27:51;9.60;;;8.90;;
3453;SDS011;1741;51.294;8.608;2024-02-26T07:30:18;8.40;;;7.90;;
3453;SDS011;1741;51.294;8.608;2024-02-26T07:32:46;9.67;;;9.17;;
3453;SDS011;1741;51.294;8.608;2024-02-26T07:35:17;11.80;;;10.70;;
3453;SDS011;1741;51.294;8.608;2024-02-26T07:37:47;9.60;;;9.10;;
3453;SDS011;1741;51.294;8.608;2024-02-26T07:40:16;9.67;;;8.90;;
3453;SDS011;1741;51.294;8.608;2024-02-26T07:42:45;12.10;;;11.00;;
3453;SDS011;1741;51.294;8.608;2024-02-26T07:45:15;11.30;;;10.30;;
3453;SDS011;1741;51.294;8.608;2024-02-26T07:47:45;14.10;;;11.83;;
3453;SDS011;1741;51.294;8.608;2024-02-26T07:50:13;11.00;;;10.10;;
3453;SDS011;1741;51.294;8.608;2024-02-26T07:52:40;11.57;;;10.70;;
3453;SDS011;1741;51.294;8.608;2024-02-26T07:55:08;10.23;;;9.60;;
3453;SDS011;1741;51.294;8.608;2024-02-26T07:57:35;10.03;;;9.50;;
3453;SDS011;1741;51.294;8.608;2024-02-26T08:00:03;10.00;;;9.40;;
3453;SDS011;1741;51.294;8.608;2024-02-26T08:02:31;10.63;;;10.03;;
3453;SDS011;1741;51.294;8.608;2024-02-26T08:04:58;11.40;;;10.33;;
3453;SDS011;1741;51.294;8.608;2024-02-26T08:07:25;10.43;;;9.73;;
3453;SDS011;1741;51.294;8.608;2024-02-26T08:09:52;10.60;;;10.00;;
3453;SDS011;1741;51.294;8.608;2024-02-26T08:12:20;10.67;;;10.07;;
3453;SDS011;1741;51.294;8.608;2024-02-26T08:14:47;9.73;;;9.23;;
3453;SDS011;1741;51.294;8.608;2024-02-26T08:17:14;10.27;;;9.67;;
3453;SDS011;1741;51.294;8.608;2024-02-26T08:19:41;10.20;;;9.43;;
3453;SDS011;1741;51.294;8.608;2024-02-26T08:22:08;10.63;;;9.73;;
3453;SDS011;1741;51.294;8.608;2024-02-26T08:24:42;9.90;;;9.17;;
3453;SDS011;1741;51.294;8.608;2024-02-26T08:27:09;9.37;;;8.57;;
3453;SDS011;1741;51.294;8.608;2024-02-26T08:29:37;9.13;;;8.53;;
3453;SDS011;1741;51.294;8.608;2024-02-26T08:32:04;8.43;;;7.93;;
3453;SDS011;1741;51.294;8.608;2024-02-26T08:34:34;8.40;;;7.87;;
3453;SDS011;1741;51.294;8.608;2024-02-26T08:37:01;7.90;;;7.40;;
3453;SDS011;1741;51.294;8.608;2024-02-26T08:39:28;6.80;;;6.50;;
3453;SDS011;1741;51.294;8.608;2024-02-26T08:41:56;7.10;;;6.60;;
3453;SDS011;1741;51.294;8.608;2024-02-26T08:44:22;8.77;;;7.20;;
3453;SDS011;1741;51.294;8.608;2024-02-26T08:46:52;7.50;;;7.10;;
3453;SDS011;1741;51.294;8.608;2024-02-26T08:49:19;6.67;;;6.37;;
3453;SDS011;1741;51.294;8.608;2024-02-26T08:51:49;10.13;;;7.30;;
3453;SDS011;1741;51.294;8.608;2024-02-26T08:54:17;6.80;;;6.40;;
3453;SDS011;1741;51.294;8.608;2024-02-26T08:56:46;7.23;;;6.73;;
3453;SDS011;1741;51.294;8.608;2024-02-26T08:59:13;6.90;;;6.30;;
3453;SDS011;1741;51.294;8.608;2024-02-26T09:01:42;7.27;;;6.77;;
3453;SDS011;1741;51.294;8.608;2024-02-26T09:04:12;7.30;;;6.70;;
3453;SDS011;1741;51.294;8.608;2024-02-26T09:06:39;7.50;;;7.03;;
3453;SDS011;1741;51.294;8.608;2024-02-26T09:09:07;8.10;;;7.40;;
3453;SDS011;1741;51.294;8.608;2024-02-26T09:11:34;6.93;;;6.43;;
3453;SDS011;1741;51.294;8.608;2024-02-26T09:14:03;8.37;;;7.50;;
3453;SDS011;1741;51.294;8.608;2024-02-26T09:16:30;7.50;;;7.00;;
3453;SDS011;1741;51.294;8.608;2024-02-26T09:18:58;9.33;;;8.53;;
3453;SDS011;1741;51.294;8.608;2024-02-26T09:21:25;8.90;;;8.20;;
3453;SDS011;1741;51.294;8.608;2024-02-26T09:23:52;7.90;;;7.30;;
3453;SDS011;1741;51.294;8.608;2024-02-26T09:26:20;9.10;;;8.33;;
3453;SDS011;1741;51.294;8.608;2024-02-26T09:28:50;8.33;;;7.73;;
3453;SDS011;1741;51.294;8.608;2024-02-26T09:31:17;9.93;;;8.00;;
3453;SDS011;1741;51.294;8.608;2024-02-26T09:33:44;8.50;;;8.00;;
3453;SDS011;1741;51.294;8.608;2024-02-26T09:36:12;9.90;;;8.57;;
3453;SDS011;1741;51.294;8.608;2024-02-26T09:38:40;9.07;;;8.27;;
3453;SDS011;1741;51.294;8.608;2024-02-26T09:41:21;9.27;;;8.47;;
3453;SDS011;1741;51.294;8.608;2024-02-26T09:43:49;8.50;;;7.90;;
3453;SDS011;1741;51.294;8.608;2024-02-26T09:46:19;10.63;;;9.57;;
3453;SDS011;1741;51.294;8.608;2024-02-26T09:48:47;10.70;;;9.70;;
3453;SDS011;1741;51.294;8.608;2024-02-26T09:51:15;9.63;;;8.83;;
3453;SDS011;1741;51.294;8.608;2024-02-26T09:53:44;10.37;;;9.50;;
3453;SDS011;1741;51.294;8.608;2024-02-26T09:56:15;12.03;;;9.50;;
3453;SDS011;1741;51.294;8.608;2024-02-26T09:58:43;10.73;;;9.47;;
3453;SDS011;1741;51.294;8.608;2024-02-26T10:01:16;10.27;;;9.27;;
3453;SDS011;1741;51.294;8.608;2024-02-26T10:03:44;9.80;;;8.67;;
3453;SDS011;1741;51.294;8.608;2024-02-26T10:06:25;8.50;;;7.70;;
3453;SDS011;1741;51.294;8.608;2024-02-26T10:08:54;9.33;;;8.27;;
3453;SDS011;1741;51.294;8.608;2024-02-26T10:11:22;9.67;;;8.27;;
3453;SDS011;1741;51.294;8.608;2024-02-26T10:13:50;8.57;;;7.70;;
3453;SDS011;1741;51.294;8.608;2024-02-26T10:16:17;11.10;;;7.83;;
3453;SDS011;1741;51.294;8.608;2024-02-26T10:18:48;9.57;;;8.03;;
3453;SDS011;1741;51.294;8.608;2024-02-26T10:21:26;8.67;;;7.87;;
3453;SDS011;1741;51.294;8.608;2024-02-26T10:23:53;11.33;;;9.57;;
3453;SDS011;1741;51.294;8.608;2024-02-26T10:26:23;9.80;;;8.80;;
3453;SDS011;1741;51.294;8.608;2024-02-26T10:28:50;9.13;;;8.10;;
3453;SDS011;1741;51.294;8.608;2024-02-26T10:31:21;11.13;;;9.30;;
3453;SDS011;1741;51.294;8.608;2024-02-26T10:33:48;12.30;;;10.40;;
3453;SDS011;1741;51.294;8.608;2024-02-26T10:36:16;15.43;;;10.33;;
3453;SDS011;1741;51.294;8.608;2024-02-26T10:38:45;11.30;;;9.60;;
3453;SDS011;1741;51.294;8.608;2024-02-26T10:41:14;10.10;;;8.90;;
3453;SDS011;1741;51.294;8.608;2024-02-26T10:43:42;14.13;;;10.17;;
3453;SDS011;1741;51.294;8.608;2024-02-26T10:46:11;12.70;;;10.20;;
3453;SDS011;1741;51.294;8.608;2024-02-26T10:48:38;14.93;;;11.07;;
3453;SDS011;1741;51.294;8.608;2024-02-26T10:51:07;13.77;;;10.40;;
3453;SDS011;1741;51.294;8.608;2024-02-26T10:53:39;15.07;;;11.23;;
3453;SDS011;1741;51.294;8.608;2024-02-26T10:56:08;14.90;;;10.80;;
3453;SDS011;1741;51.294;8.608;2024-02-26T10:58:41;15.23;;;10.77;;
3453;SDS011;1741;51.294;8.608;2024-02-26T11:01:12;15.20;;;11.70;;
3453;SDS011;1741;51.294;8.608;2024-02-26T11:03:39;14.80;;;11.13;;
3453;SDS011;1741;51.294;8.608;2024-02-26T11:06:10;16.97;;;11.47;;
3453;SDS011;1741;51.294;8.608;2024-02-26T11:08:39;16.50;;;12.20;;
3453;SDS011;1741;51.294;8.608;2024-02-26T11:11:07;17.33;;;11.57;;
3453;SDS011;1741;51.294;8.608;2024-02-26T11:13:36;17.53;;;10.90;;
3453;SDS011;1741;51.294;8.608;2024-02-26T11:16:10;14.43;;;12.20;;
3453;SDS011;1741;51.294;8.608;2024-02-26T11:18:39;19.00;;;14.03;;
3453;SDS011;1741;51.294;8.608;2024-02-26T11:21:10;16.90;;;14.37;;
3453;SDS011;1741;51.294;8.608;2024-02-26T11:23:39;20.23;;;14.70;;
3453;SDS011;1741;51.294;8.608;2024-02-26T11:26:07;15.57;;;13.30;;
3453;SDS011;1741;51.294;8.608;2024-02-26T11:28:37;18.10;;;14.70;;
3453;SDS011;1741;51.294;8.608;2024-02-26T11:31:05;17.03;;;14.37;;
3453;SDS011;1741;51.294;8.608;2024-02-26T11:33:34;17.00;;;13.60;;
3453;SDS011;1741;51.294;8.608;2024-02-26T11:36:07;15.27;;;13.73;;
3453;SDS011;1741;51.294;8.608;2024-02-26T11:38:36;20.77;;;15.03;;
3453;SDS011;1741;51.294;8.608;2024-02-26T11:41:04;15.20;;;13.70;;
3453;SDS011;1741;51.294;8.608;2024-02-26T11:43:51;18.03;;;14.50;;
3453;SDS011;1741;51.294;8.608;2024-02-26T11:46:27;15.23;;;13.63;;
3453;SDS011;1741;51.294;8.608;2024-02-26T11:49:03;18.07;;;13.77;;
3453;SDS011;1741;51.294;8.608;2024-02-26T11:51:54;14.37;;;12.87;;
3453;SDS011;1741;51.294;8.608;2024-02-26T11:59:55;16.07;;;13.67;;
3453;SDS011;1741;51.294;8.608;2024-02-26T12:02:44;15.70;;;13.30;;
3453;SDS011;1741;51.294;8.608;2024-02-26T12:05:25;18.80;;;13.93;;
3453;SDS011;1741;51.294;8.608;2024-02-26T12:10:36;17.07;;;13.50;;
3453;SDS011;1741;51.294;8.608;2024-02-26T12:13:06;16.17;;;13.37;;
3453;SDS011;1741;51.294;8.608;2024-02-26T12:18:20;14.87;;;13.20;;
3453;SDS011;1741;51.294;8.608;2024-02-26T12:21:02;12.67;;;11.43;;
3453;SDS011;1741;51.294;8.608;2024-02-26T12:23:31;14.90;;;13.40;;
3453;SDS011;1741;51.294;8.608;2024-02-26T12:25:59;17.97;;;13.30;;
3453;SDS011;1741;51.294;8.608;2024-02-26T12:28:31;15.57;;;13.93;;
3453;SDS011;1741;51.294;8.608;2024-02-26T12:30:58;15.93;;;12.87;;
3453;SDS011;1741;51.294;8.608;2024-02-26T12:33:26;15.00;;;12.83;;
3453;SDS011;1741;51.294;8.608;2024-02-26T12:35:55;15.90;;;13.87;;
3453;SDS011;1741;51.294;8.608;2024-02-26T12:38:23;14.90;;;13.40;;
3453;SDS011;1741;51.294;8.608;2024-02-26T12:40:51;18.30;;;13.27;;
3453;SDS011;1741;51.294;8.608;2024-02-26T12:43:18;14.70;;;13.27;;
3453;SDS011;1741;51.294;8.608;2024-02-26T12:45:45;14.83;;;13.33;;
3453;SDS011;1741;51.294;8.608;2024-02-26T12:48:14;14.10;;;12.70;;
3453;SDS011;1741;51.294;8.608;2024-02-26T12:50:45;14.57;;;12.60;;
3453;SDS011;1741;51.294;8.608;2024-02-26T12:53:16;15.90;;;13.60;;
3453;SDS011;1741;51.294;8.608;2024-02-26T12:55:44;14.93;;;13.43;;
3453;SDS011;1741;51.294;8.608;2024-02-26T12:58:11;13.40;;;12.20;;
3453;SDS011;1741;51.294;8.608;2024-02-26T13:00:39;13.43;;;12.10;;
3453;SDS011;1741;51.294;8.608;2024-02-26T13:03:07;14.80;;;13.40;;
3453;SDS011;1741;51.294;8.608;2024-02-26T13:05:35;15.70;;;13.67;;
3453;SDS011;1741;51.294;8.608;2024-02-26T13:08:03;14.50;;;13.07;;
3453;SDS011;1741;51.294;8.608;2024-02-26T13:10:37;17.83;;;16.03;;
3453;SDS011;1741;51.294;8.608;2024-02-26T13:13:05;17.73;;;15.83;;
3453;SDS011;1741;51.294;8.608;2024-02-26T13:15:32;18.10;;;16.43;;
3453;SDS011;1741;51.294;8.608;2024-02-26T13:17:59;15.77;;;14.37;;
3453;SDS011;1741;51.294;8.608;2024-02-26T13:20:39;18.50;;;16.80;;
3453;SDS011;1741;51.294;8.608;2024-02-26T13:23:12;19.20;;;17.40;;
3453;SDS011;1741;51.294;8.608;2024-02-26T13:25:39;19.63;;;17.77;;
3453;SDS011;1741;51.294;8.608;2024-02-26T13:30:51;18.33;;;16.70;;
3453;SDS011;1741;51.294;8.608;2024-02-26T13:33:20;17.40;;;16.00;;
3453;SDS011;1741;51.294;8.608;2024-02-26T13:35:47;17.03;;;15.40;;
3453;SDS011;1741;51.294;8.608;2024-02-26T13:38:15;16.60;;;15.20;;
3453;SDS011;1741;51.294;8.608;2024-02-26T13:40:42;15.73;;;14.43;;
3453;SDS011;1741;51.294;8.608;2024-02-26T13:43:09;14.93;;;13.50;;
3453;SDS011;1741;51.294;8.608;2024-02-26T13:45:37;15.20;;;13.63;;
3453;SDS011;1741;51.294;8.608;2024-02-26T13:48:06;15.10;;;13.67;;
3453;SDS011;1741;51.294;8.608;2024-02-26T13:50:37;21.43;;;14.40;;
3453;SDS011;1741;51.294;8.608;2024-02-26T13:53:05;14.97;;;13.67;;
3453;SDS011;1741;51.294;8.608;2024-02-26T13:55:32;15.20;;;13.43;;
3453;SDS011;1741;51.294;8.608;2024-02-26T13:57:59;13.70;;;12.40;;
3453;SDS011;1741;51.294;8.608;2024-02-26T14:00:30;13.97;;;12.60;;
3453;SDS011;1741;51.294;8.608;2024-02-26T14:03:02;14.20;;;12.87;;
3453;SDS011;1741;51.294;8.608;2024-02-26T14:05:30;17.17;;;15.37;;
3453;SDS011;1741;51.294;8.608;2024-02-26T14:07:58;15.33;;;13.63;;
3453;SDS011;1741;51.294;8.608;2024-02-26T14:10:25;14.30;;;12.83;;
3453;SDS011;1741;51.294;8.608;2024-02-26T14:12:52;14.00;;;12.80;;
3453;SDS011;1741;51.294;8.608;2024-02-26T14:15:20;15.07;;;13.57;;
3453;SDS011;1741;51.294;8.608;2024-02-26T14:17:48;14.80;;;13.37;;
3453;SDS011;1741;51.294;8.608;2024-02-26T14:20:22;16.07;;;14.37;;
3453;SDS011;1741;51.294;8.608;2024-02-26T14:22:51;15.13;;;13.83;;
3453;SDS011;1741;51.294;8.608;2024-02-26T14:25:22;14.93;;;13.50;;
3453;SDS011;1741;51.294;8.608;2024-02-26T14:27:54;14.73;;;13.33;;
3453;SDS011;1741;51.294;8.608;2024-02-26T14:30:21;14.70;;;13.40;;
3453;SDS011;1741;51.294;8.608;2024-02-26T14:32:48;15.07;;;13.67;;
3453;SDS011;1741;51.294;8.608;2024-02-26T14:35:16;14.30;;;12.90;;
3453;SDS011;1741;51.294;8.608;2024-02-26T14:37:44;16.97;;;14.70;;
3453;SDS011;1741;51.294;8.608;2024-02-26T14:40:32;17.13;;;14.57;;
3453;SDS011;1741;51.294;8.608;2024-02-26T14:42:59;16.50;;;14.93;;
3453;SDS011;1741;51.294;8.608;2024-02-26T14:45:26;16.03;;;14.70;;
3453;SDS011;1741;51.294;8.608;2024-02-26T14:47:54;17.17;;;15.23;;
3453;SDS011;1741;51.294;8.608;2024-02-26T14:50:21;15.20;;;13.90;;
3453;SDS011;1741;51.294;8.608;2024-02-26T14:52:48;20.10;;;16.80;;
3453;SDS011;1741;51.294;8.608;2024-02-26T14:55:16;17.07;;;15.03;;
3453;SDS011;1741;51.294;8.608;2024-02-26T14:57:43;16.97;;;15.20;;
3453;SDS011;1741;51.294;8.608;2024-02-26T15:00:10;18.70;;;16.90;;
3453;SDS011;1741;51.294;8.608;2024-02-26T15:02:38;19.47;;;17.37;;
3453;SDS011;1741;51.294;8.608;2024-02-26T15:05:05;17.93;;;16.13;;
3453;SDS011;1741;51.294;8.608;2024-02-26T15:07:35;16.07;;;14.40;;
3453;SDS011;1741;51.294;8.608;2024-02-26T15:10:06;21.40;;;14.20;;
3453;SDS011;1741;51.294;8.608;2024-02-26T15:12:35;16.67;;;12.80;;
3453;SDS011;1741;51.294;8.608;2024-02-26T15:15:03;12.33;;;11.13;;
3453;SDS011;1741;51.294;8.608;2024-02-26T15:17:31;11.30;;;10.50;;
3453;SDS011;1741;51.294;8.608;2024-02-26T15:20:01;13.67;;;11.60;;
3453;SDS011;1741;51.294;8.608;2024-02-26T15:22:29;13.87;;;11.93;;
3453;SDS011;1741;51.294;8.608;2024-02-26T15:24:58;11.87;;;10.80;;
3453;SDS011;1741;51.294;8.608;2024-02-26T15:27:25;12.83;;;11.37;;